createdAt,value
2018-05-31T00:02:14.429Z,439.73
2018-05-31T00:04:42.058Z,457.63
2018-05-31T00:07:09.645Z,485.03
2018-05-31T00:09:37.297Z,487.20
2018-05-31T00:12:04.925Z,477.97
2018-05-31T00:14:32.552Z,471.27
2018-05-31T00:17:00.184Z,453.70
2018-05-31T00:19:27.776Z,468.13
2018-05-31T00:21:55.389Z,471.60
2018-05-31T00:24:22.977Z,458.50
2018-05-31T00:26:50.605Z,454.77
2018-05-31T00:29:18.200Z,460.73
2018-05-31T00:31:45.824Z,463.23
2018-05-31T00:34:13.443Z,451.63
2018-05-31T00:36:41.072Z,457.63
2018-05-31T00:39:08.659Z,438.63
2018-05-31T00:41:36.286Z,455.63
2018-05-31T00:44:03.886Z,442.50
2018-05-31T00:46:31.523Z,440.20
2018-05-31T00:48:59.168Z,458.73
2018-05-31T00:51:26.754Z,443.10
2018-05-31T00:53:54.344Z,441.77
2018-05-31T00:56:21.972Z,439.73
2018-05-31T00:58:49.604Z,437.90
2018-05-31T01:01:17.205Z,445.37
2018-05-31T01:03:44.828Z,437.33
2018-05-31T01:06:12.452Z,434.47
2018-05-31T01:08:40.049Z,437.00
2018-05-31T01:11:07.672Z,466.80
2018-05-31T01:13:35.269Z,447.17
2018-05-31T01:16:02.880Z,426.40
2018-05-31T01:18:30.473Z,445.47
2018-05-31T01:20:58.104Z,407.97
2018-05-31T01:23:25.686Z,443.87
2018-05-31T01:25:53.315Z,439.00
2018-05-31T01:28:20.901Z,445.17
2018-05-31T01:30:48.486Z,459.43
2018-05-31T01:33:16.130Z,442.67
2018-05-31T01:35:43.712Z,430.53
2018-05-31T01:38:23.222Z,433.03
2018-05-31T01:40:50.800Z,431.70
2018-05-31T01:43:18.430Z,436.27
2018-05-31T01:45:46.034Z,435.93
2018-05-31T01:48:13.684Z,444.67
2018-05-31T01:50:42.043Z,477.37
2018-05-31T01:53:09.632Z,473.67
2018-05-31T01:55:37.261Z,454.77
2018-05-31T01:58:04.892Z,454.80
2018-05-31T02:00:32.470Z,455.77
2018-05-31T02:03:00.049Z,442.10
2018-05-31T02:05:27.677Z,477.40
2018-05-31T02:07:55.264Z,474.67
2018-05-31T02:10:23.669Z,473.57
2018-05-31T02:12:51.294Z,456.07
2018-05-31T02:15:18.876Z,466.97
2018-05-31T02:17:46.510Z,488.53
2018-05-31T02:20:14.110Z,473.77
2018-05-31T02:22:41.754Z,484.43
2018-05-31T02:25:09.336Z,480.30
2018-05-31T02:27:36.933Z,471.00
2018-05-31T02:30:05.014Z,459.47
2018-05-31T02:32:32.603Z,461.50
2018-05-31T02:35:00.232Z,558.37
2018-05-31T02:37:27.826Z,534.67
2018-05-31T02:39:55.455Z,504.73
2018-05-31T02:42:23.050Z,410.27
2018-05-31T02:44:50.640Z,438.07
2018-05-31T02:47:19.041Z,480.57
2018-05-31T02:49:46.674Z,417.03
2018-05-31T02:52:15.039Z,380.80
2018-05-31T02:54:42.674Z,380.50
2018-05-31T02:57:10.264Z,434.97
2018-05-31T02:59:37.849Z,450.37
2018-05-31T03:02:06.244Z,487.73
2018-05-31T03:04:33.877Z,444.27
2018-05-31T03:07:02.305Z,476.47
2018-05-31T03:09:29.875Z,468.30
2018-05-31T03:11:57.501Z,463.50
2018-05-31T03:14:25.149Z,515.30
2018-05-31T03:16:53.541Z,551.43
2018-05-31T03:19:21.134Z,532.90
2018-05-31T03:21:48.760Z,539.03
2018-05-31T03:24:16.365Z,540.77
2018-05-31T03:26:43.971Z,525.07
2018-05-31T03:29:11.593Z,451.30
2018-05-31T03:31:39.187Z,438.63
2018-05-31T03:34:06.826Z,500.47
2018-05-31T03:36:34.430Z,517.67
2018-05-31T03:39:02.049Z,541.93
2018-05-31T03:41:29.632Z,544.07
2018-05-31T03:43:57.261Z,573.57
2018-05-31T03:46:24.867Z,541.63
2018-05-31T03:48:52.504Z,520.73
2018-05-31T03:51:20.104Z,463.90
2018-05-31T03:53:47.712Z,475.87
2018-05-31T03:56:15.340Z,444.83
2018-05-31T03:58:42.937Z,422.10
2018-05-31T04:01:10.568Z,417.93
2018-05-31T04:03:38.188Z,471.40
2018-05-31T04:06:05.791Z,520.50
2018-05-31T04:08:33.438Z,530.97
2018-05-31T04:11:01.885Z,516.77
2018-05-31T04:13:29.514Z,522.20
2018-05-31T04:15:57.132Z,552.90
2018-05-31T04:18:24.718Z,607.70
2018-05-31T04:20:52.349Z,612.57
2018-05-31T04:23:19.951Z,620.73
2018-05-31T04:25:47.604Z,641.07
2018-05-31T04:28:15.197Z,634.43
2018-05-31T04:30:42.793Z,621.33
2018-05-31T04:33:10.442Z,619.90
2018-05-31T04:35:38.087Z,569.23
2018-05-31T04:38:05.681Z,506.60
2018-05-31T04:40:34.037Z,393.27
2018-05-31T04:43:01.669Z,443.90
2018-05-31T04:45:29.269Z,436.30
2018-05-31T04:47:56.896Z,454.03
2018-05-31T04:50:24.522Z,507.53
2018-05-31T04:52:52.877Z,460.90
2018-05-31T04:55:21.281Z,408.90
2018-05-31T04:57:49.636Z,428.30
2018-05-31T05:00:18.037Z,411.80
2018-05-31T05:02:45.643Z,414.13
2018-05-31T05:05:13.273Z,423.67
2018-05-31T05:07:40.869Z,425.10
2018-05-31T05:10:12.102Z,387.07
2018-05-31T05:12:41.158Z,410.60
2018-05-31T05:15:11.321Z,423.93
2018-05-31T05:17:41.197Z,421.37
2018-05-31T05:20:12.059Z,357.63
2018-05-31T05:22:39.881Z,283.90
2018-05-31T05:25:07.474Z,237.57
2018-05-31T05:27:35.068Z,218.77
2018-05-31T05:30:02.694Z,202.50
2018-05-31T05:32:30.318Z,199.50
2018-05-31T05:34:57.937Z,214.90
2018-05-31T05:37:25.570Z,232.60
2018-05-31T05:39:53.923Z,213.63
2018-05-31T05:42:21.571Z,247.30
2018-05-31T05:44:49.161Z,231.80
2018-05-31T05:47:17.522Z,261.30
2018-05-31T05:49:45.165Z,262.53
2018-05-31T05:52:12.797Z,278.60
2018-05-31T05:54:40.434Z,262.73
2018-05-31T05:57:08.037Z,274.33
2018-05-31T05:59:35.676Z,265.97
2018-05-31T06:02:03.270Z,274.47
2018-05-31T06:04:30.892Z,260.83
2018-05-31T06:06:58.477Z,260.00
2018-05-31T06:09:26.108Z,285.63
2018-05-31T06:11:53.753Z,238.07
2018-05-31T06:14:21.352Z,242.60
2018-05-31T06:16:48.955Z,262.57
2018-05-31T06:19:16.585Z,260.43
2018-05-31T06:21:44.208Z,241.40
2018-05-31T06:24:11.794Z,235.20
2018-05-31T06:26:39.455Z,231.30
2018-05-31T06:29:07.058Z,235.97
2018-05-31T06:31:34.712Z,222.43
2018-05-31T06:34:02.310Z,236.50
2018-05-31T06:36:30.728Z,239.23
2018-05-31T06:38:58.343Z,247.13
2018-05-31T06:41:25.961Z,191.13
2018-05-31T06:43:53.582Z,189.77
2018-05-31T06:46:21.171Z,233.47
2018-05-31T06:48:48.818Z,259.33
2018-05-31T06:51:16.401Z,260.20
2018-05-31T06:53:44.021Z,245.43
2018-05-31T06:56:11.606Z,271.93
2018-05-31T06:58:39.990Z,254.80
2018-05-31T07:01:08.336Z,258.60
2018-05-31T07:03:35.960Z,247.20
2018-05-31T07:06:03.593Z,255.13
2018-05-31T07:08:31.940Z,242.70
2018-05-31T07:10:59.601Z,254.57
2018-05-31T07:13:27.235Z,232.93
2018-05-31T07:15:54.885Z,203.20
2018-05-31T07:18:22.474Z,193.37
2018-05-31T07:20:50.053Z,168.70
2018-05-31T07:23:17.669Z,146.53
2018-05-31T07:25:45.286Z,123.87
2018-05-31T07:28:12.868Z,127.97
2018-05-31T07:30:41.253Z,126.67
2018-05-31T07:33:08.828Z,118.53
2018-05-31T07:35:36.458Z,120.67
2018-05-31T07:38:04.795Z,105.57
2018-05-31T07:40:32.441Z,99.23
2018-05-31T07:43:00.019Z,87.77
2018-05-31T07:45:27.625Z,94.37
2018-05-31T07:47:55.205Z,83.63
2018-05-31T07:50:22.816Z,76.83
2018-05-31T07:52:50.387Z,69.03
2018-05-31T07:55:17.993Z,68.60
2018-05-31T07:57:45.625Z,67.03
2018-05-31T08:00:13.240Z,73.30
2018-05-31T08:02:40.813Z,77.00
2018-05-31T08:05:08.421Z,69.57
2018-05-31T08:07:36.760Z,88.87
2018-05-31T08:10:05.043Z,69.87
2018-05-31T08:12:32.614Z,76.30
2018-05-31T08:15:00.182Z,75.40
2018-05-31T08:17:27.804Z,80.10
2018-05-31T08:19:55.383Z,86.60
2018-05-31T08:22:22.961Z,85.27
2018-05-31T08:24:50.581Z,81.90
2018-05-31T08:27:18.184Z,88.53
2018-05-31T08:29:45.777Z,88.23
2018-05-31T08:32:13.364Z,92.60
2018-05-31T08:34:40.968Z,91.03
2018-05-31T08:37:09.350Z,100.03
2018-05-31T08:39:37.175Z,91.57
2018-05-31T08:42:07.048Z,97.60
2018-05-31T08:44:36.694Z,111.23
2018-05-31T08:47:06.899Z,113.20
2018-05-31T08:49:36.183Z,111.73
2018-05-31T08:52:04.658Z,108.83
2018-05-31T08:54:35.415Z,108.50
2018-05-31T08:57:04.402Z,107.83
2018-05-31T08:59:33.225Z,115.00
2018-05-31T09:02:04.140Z,112.47
2018-05-31T09:04:32.369Z,135.23
2018-05-31T09:07:00.712Z,81.30
2018-05-31T09:09:29.634Z,134.43
2018-05-31T09:11:58.503Z,138.70
2018-05-31T09:14:26.617Z,85.10
2018-05-31T09:16:54.852Z,63.57
2018-05-31T09:19:23.453Z,74.30
2018-05-31T09:21:51.688Z,48.83
2018-05-31T09:24:20.158Z,40.83
2018-05-31T09:26:50.498Z,33.60
2018-05-31T09:29:19.467Z,36.47
2018-05-31T09:31:49.108Z,39.40
2018-05-31T09:34:18.972Z,30.23
2018-05-31T09:36:47.774Z,25.17
2018-05-31T09:39:16.378Z,38.03
2018-05-31T09:41:45.926Z,38.33
2018-05-31T09:44:15.948Z,37.10
2018-05-31T09:46:44.099Z,37.57
2018-05-31T09:49:13.437Z,37.97
2018-05-31T09:51:42.683Z,40.73
2018-05-31T09:54:13.720Z,34.83
2018-05-31T09:56:42.097Z,40.93
2018-05-31T09:59:12.878Z,50.37
2018-05-31T10:01:44.077Z,34.53
2018-05-31T10:04:13.843Z,31.60
2018-05-31T10:06:42.093Z,31.83
2018-05-31T10:09:12.493Z,22.93
2018-05-31T10:11:41.089Z,22.53
2018-05-31T10:14:10.297Z,33.57
2018-05-31T10:16:39.110Z,19.67
2018-05-31T10:19:08.435Z,21.63
2018-05-31T10:21:36.595Z,20.23
2018-05-31T10:24:04.981Z,21.70
2018-05-31T10:26:33.360Z,20.17
2018-05-31T10:29:01.743Z,20.07
2018-05-31T10:31:30.007Z,21.17
2018-05-31T10:33:57.687Z,21.03
2018-05-31T10:36:25.256Z,17.30
2018-05-31T10:38:52.877Z,19.80
2018-05-31T10:41:20.453Z,17.57
2018-05-31T10:43:48.030Z,18.60
2018-05-31T10:46:15.666Z,18.10
2018-05-31T10:48:46.256Z,17.63
2018-05-31T10:51:19.046Z,33.43
2018-05-31T10:53:51.075Z,30.20
2018-05-31T10:56:23.820Z,30.40
2018-05-31T11:01:32.374Z,34.87
2018-05-31T11:04:01.787Z,24.10
2018-05-31T11:06:34.286Z,20.20
2018-05-31T11:09:03.332Z,49.43
2018-05-31T11:11:35.599Z,55.63
2018-05-31T11:14:05.307Z,77.23
2018-05-31T11:16:39.414Z,74.43
2018-05-31T11:19:08.422Z,73.07
2018-05-31T11:21:36.837Z,71.90
2018-05-31T11:24:05.245Z,70.23
2018-05-31T11:26:33.540Z,35.90
2018-05-31T11:29:02.790Z,60.03
2018-05-31T11:31:31.513Z,44.17
2018-05-31T11:34:00.544Z,51.20
2018-05-31T11:39:03.987Z,14.80
2018-05-31T11:41:33.216Z,16.67
2018-05-31T11:44:01.811Z,15.87
2018-05-31T11:46:33.059Z,18.83
2018-05-31T11:49:09.120Z,14.20
2018-05-31T11:51:40.234Z,15.20
2018-05-31T11:54:09.901Z,15.03
2018-05-31T11:56:42.467Z,18.20
2018-05-31T11:59:10.999Z,23.83
2018-05-31T12:01:42.355Z,28.40
2018-05-31T12:04:12.415Z,30.20
2018-05-31T12:06:40.862Z,20.13
2018-05-31T12:09:11.645Z,27.47
2018-05-31T12:11:40.807Z,26.77
2018-05-31T12:14:11.474Z,26.53
2018-05-31T12:16:40.369Z,25.43
2018-05-31T12:19:07.993Z,19.53
2018-05-31T12:21:35.597Z,21.27
2018-05-31T12:24:03.176Z,31.23
2018-05-31T12:26:30.793Z,29.47
2018-05-31T12:28:58.365Z,25.43
2018-05-31T12:31:25.968Z,22.83
2018-05-31T12:33:53.537Z,15.80
2018-05-31T12:36:21.147Z,14.97
2018-05-31T12:38:48.719Z,15.50
2018-05-31T12:41:16.330Z,14.83
2018-05-31T12:43:43.956Z,16.73
2018-05-31T12:46:11.732Z,19.77
2018-05-31T12:48:41.264Z,28.17
2018-05-31T12:51:09.041Z,28.73
2018-05-31T12:53:36.668Z,22.80
2018-05-31T12:56:04.274Z,22.93
2018-05-31T12:58:31.893Z,23.43
2018-05-31T13:00:59.509Z,20.53
2018-05-31T13:03:27.076Z,19.90
2018-05-31T13:05:54.707Z,14.63
2018-05-31T13:08:22.386Z,13.23
2018-05-31T13:10:49.992Z,15.53
2018-05-31T13:13:18.088Z,15.23
2018-05-31T13:15:45.744Z,14.50
2018-05-31T13:18:13.645Z,13.50
2018-05-31T13:20:41.298Z,14.67
2018-05-31T13:23:08.876Z,14.57
2018-05-31T13:25:36.492Z,14.23
2018-05-31T13:28:04.073Z,15.70
2018-05-31T13:30:32.460Z,18.80
2018-05-31T13:33:00.832Z,20.50
2018-05-31T13:35:29.192Z,20.13
2018-05-31T13:37:56.806Z,17.03
2018-05-31T13:40:24.417Z,16.53
2018-05-31T13:42:51.995Z,15.90
2018-05-31T13:45:19.600Z,16.77
2018-05-31T13:47:47.181Z,17.80
2018-05-31T13:50:14.796Z,19.80
2018-05-31T13:52:42.436Z,18.07
2018-05-31T13:55:10.015Z,16.53
2018-05-31T13:57:37.602Z,16.97
2018-05-31T14:00:05.214Z,16.37
2018-05-31T14:02:32.799Z,19.57
2018-05-31T14:05:00.422Z,20.53
2018-05-31T14:07:27.997Z,16.83
2018-05-31T14:09:56.347Z,16.03
2018-05-31T14:12:23.965Z,18.33
2018-05-31T14:14:51.576Z,13.40
2018-05-31T14:17:19.144Z,13.53
2018-05-31T14:19:46.722Z,16.40
2018-05-31T14:22:14.349Z,16.10
2018-05-31T14:24:41.925Z,19.27
2018-05-31T14:27:09.529Z,23.60
2018-05-31T14:29:37.097Z,22.83
2018-05-31T14:32:04.707Z,23.30
2018-05-31T14:34:32.278Z,23.13
2018-05-31T14:36:59.894Z,16.87
2018-05-31T14:39:27.469Z,14.23
2018-05-31T14:41:55.082Z,13.80
2018-05-31T14:44:22.667Z,13.57
2018-05-31T14:46:50.292Z,12.33
2018-05-31T14:49:17.910Z,12.80
2018-05-31T14:51:45.475Z,12.10
2018-05-31T14:54:13.847Z,12.53
2018-05-31T14:56:41.416Z,12.13
2018-05-31T14:59:09.020Z,11.60
2018-05-31T15:01:36.609Z,12.80
2018-05-31T15:04:04.267Z,11.33
2018-05-31T15:06:31.851Z,11.70
2018-05-31T15:08:59.459Z,11.77
2018-05-31T15:11:27.033Z,11.80
2018-05-31T15:13:54.657Z,13.33
2018-05-31T15:16:22.231Z,13.10
2018-05-31T15:18:49.804Z,14.27
2018-05-31T15:21:17.418Z,16.90
2018-05-31T15:23:44.993Z,17.03
2018-05-31T15:26:12.606Z,16.63
2018-05-31T15:28:40.176Z,16.70
2018-05-31T15:31:07.755Z,15.60
2018-05-31T15:33:35.371Z,21.90
2018-05-31T15:36:02.971Z,19.73
2018-05-31T15:38:30.540Z,24.37
2018-05-31T15:40:58.150Z,23.47
2018-05-31T15:43:25.963Z,27.40
2018-05-31T15:45:53.568Z,30.03
2018-05-31T15:48:21.177Z,33.37
2018-05-31T15:50:48.755Z,34.73
2018-05-31T15:53:16.361Z,38.57
2018-05-31T15:55:43.969Z,19.27
2018-05-31T15:58:11.581Z,66.90
2018-05-31T16:00:39.206Z,26.93
2018-05-31T16:03:06.813Z,22.57
2018-05-31T16:05:34.406Z,31.23
2018-05-31T16:08:02.020Z,33.73
2018-05-31T16:10:29.608Z,75.60
2018-05-31T16:12:57.411Z,96.57
2018-05-31T16:15:25.001Z,179.13
2018-05-31T16:17:52.663Z,287.33
2018-05-31T16:20:20.344Z,565.97
2018-05-31T16:22:47.969Z,517.03
2018-05-31T16:25:18.379Z,242.80
2018-05-31T16:27:46.167Z,167.63
2018-05-31T16:30:14.589Z,110.13
2018-05-31T16:32:42.382Z,165.33
2018-05-31T16:35:10.023Z,263.10
2018-05-31T16:37:37.616Z,431.73
2018-05-31T16:40:05.278Z,516.40
2018-05-31T16:42:32.849Z,581.33
2018-05-31T16:45:00.445Z,551.50
2018-05-31T16:47:28.072Z,648.30
2018-05-31T16:49:55.649Z,524.90
2018-05-31T16:52:23.297Z,559.10
2018-05-31T16:54:50.923Z,563.57
2018-05-31T16:57:18.531Z,540.60
2018-05-31T16:59:46.116Z,572.87
2018-05-31T17:02:15.392Z,482.60
2018-05-31T17:04:43.006Z,505.93
2018-05-31T17:07:10.617Z,510.23
2018-05-31T17:09:38.201Z,560.60
2018-05-31T17:12:05.839Z,393.53
2018-05-31T17:14:33.434Z,505.17
2018-05-31T17:17:01.017Z,541.00
2018-05-31T17:19:29.409Z,572.00
2018-05-31T17:21:56.988Z,601.80
2018-05-31T17:24:24.610Z,641.47
2018-05-31T17:26:52.963Z,622.93
2018-05-31T17:29:20.580Z,637.93
2018-05-31T17:31:48.204Z,640.97
2018-05-31T17:34:16.613Z,652.80
2018-05-31T17:36:44.204Z,614.87
2018-05-31T17:39:11.853Z,623.73
2018-05-31T17:41:42.053Z,565.53
2018-05-31T17:44:10.208Z,617.97
2018-05-31T17:46:38.564Z,591.40
2018-05-31T17:49:07.203Z,568.77
2018-05-31T17:51:35.106Z,517.93
2018-05-31T17:54:02.756Z,437.67
2018-05-31T17:56:30.389Z,417.77
2018-05-31T17:58:57.973Z,452.30
2018-05-31T18:01:25.550Z,582.23
2018-05-31T18:03:53.168Z,667.87
2018-05-31T18:06:20.961Z,580.03
2018-05-31T18:08:48.582Z,604.10
2018-05-31T18:11:16.167Z,575.40
2018-05-31T18:13:43.798Z,491.27
2018-05-31T18:16:11.412Z,446.77
2018-05-31T18:18:39.046Z,453.17
2018-05-31T18:21:06.626Z,481.43
2018-05-31T18:23:34.271Z,493.20
2018-05-31T18:26:01.902Z,486.30
2018-05-31T18:28:29.486Z,477.33
2018-05-31T18:30:57.117Z,445.43
2018-05-31T18:33:24.734Z,446.20
2018-05-31T18:35:52.605Z,459.27
2018-05-31T18:38:20.244Z,464.87
2018-05-31T18:40:47.887Z,440.83
2018-05-31T18:43:15.468Z,483.87
2018-05-31T18:45:43.041Z,444.83
2018-05-31T18:48:10.648Z,438.17
2018-05-31T18:50:38.226Z,479.63
2018-05-31T18:53:06.604Z,529.30
2018-05-31T18:55:34.992Z,534.00
2018-05-31T18:58:03.353Z,459.50
2018-05-31T19:00:30.935Z,420.73
2018-05-31T19:02:58.560Z,417.87
2018-05-31T19:05:26.136Z,390.83
2018-05-31T19:07:53.722Z,402.77
2018-05-31T19:10:21.339Z,428.70
2018-05-31T19:12:54.662Z,464.77
2018-05-31T19:15:22.312Z,441.70
2018-05-31T19:17:50.473Z,397.53
2018-05-31T19:20:18.150Z,411.67
2018-05-31T19:22:45.739Z,385.67
2018-05-31T19:25:20.298Z,368.93
2018-05-31T19:27:47.887Z,372.37
2018-05-31T19:30:21.250Z,384.40
2018-05-31T19:32:48.839Z,406.00
2018-05-31T19:35:22.137Z,413.80
2018-05-31T19:37:50.023Z,452.47
2018-05-31T19:40:17.785Z,440.67
2018-05-31T19:42:50.945Z,425.10
2018-05-31T19:45:18.521Z,419.10
2018-05-31T19:47:46.141Z,437.33
2018-05-31T19:50:13.717Z,435.37
2018-05-31T19:52:46.965Z,428.17
2018-05-31T19:55:14.546Z,454.30
2018-05-31T19:57:47.826Z,470.83
2018-05-31T20:00:21.863Z,513.50
2018-05-31T20:02:55.049Z,498.33
2018-05-31T20:05:22.776Z,478.43
2018-05-31T20:07:50.395Z,528.77
2018-05-31T20:10:17.968Z,534.20
2018-05-31T20:12:45.579Z,522.80
2018-05-31T20:15:13.189Z,549.57
2018-05-31T20:17:40.812Z,521.70
2018-05-31T20:20:08.387Z,573.23
2018-05-31T20:22:36.018Z,559.53
2018-05-31T20:25:03.600Z,572.23
2018-05-31T20:27:31.173Z,583.13
2018-05-31T20:29:58.818Z,586.70
2018-05-31T20:32:26.447Z,618.90
2018-05-31T20:34:54.030Z,600.67
2018-05-31T20:37:21.642Z,661.33
2018-05-31T20:39:49.225Z,615.67
2018-05-31T20:42:16.839Z,597.83
2018-05-31T20:44:44.421Z,607.13
2018-05-31T20:47:12.049Z,600.00
2018-05-31T20:49:39.625Z,580.80
2018-05-31T20:52:07.241Z,587.63
2018-05-31T20:54:34.821Z,615.50
2018-05-31T20:57:02.438Z,617.77
2018-05-31T20:59:30.028Z,610.70
2018-05-31T21:01:57.612Z,604.77
2018-05-31T21:04:26.382Z,607.17
2018-05-31T21:06:55.394Z,585.80
2018-05-31T21:09:24.324Z,607.83
2018-05-31T21:11:51.953Z,614.73
2018-05-31T21:14:19.520Z,594.80
2018-05-31T21:16:47.171Z,574.67
2018-05-31T21:19:15.117Z,608.33
2018-05-31T21:21:42.755Z,640.80
2018-05-31T21:24:10.336Z,623.67
2018-05-31T21:26:37.960Z,632.70
2018-05-31T21:29:05.538Z,655.37
2018-05-31T21:31:33.115Z,613.00
2018-05-31T21:34:00.726Z,604.03
2018-05-31T21:36:28.310Z,637.70
2018-05-31T21:38:55.934Z,663.23
2018-05-31T21:41:23.518Z,668.43
2018-05-31T21:43:51.141Z,637.87
2018-05-31T21:46:18.726Z,626.67
2018-05-31T21:48:46.355Z,654.00
2018-05-31T21:51:13.985Z,695.50
2018-05-31T21:53:41.607Z,687.07
2018-05-31T21:56:09.314Z,697.37
2018-05-31T21:58:36.940Z,678.07
2018-05-31T22:01:04.520Z,693.10
2018-05-31T22:03:33.099Z,653.67
2018-05-31T22:06:00.729Z,663.30
2018-05-31T22:08:28.336Z,645.27
2018-05-31T22:10:56.009Z,656.13
2018-05-31T22:13:23.611Z,668.20
2018-05-31T22:15:52.007Z,698.67
2018-05-31T22:18:19.652Z,700.53
2018-05-31T22:20:47.671Z,711.37
2018-05-31T22:23:15.376Z,698.77
2018-05-31T22:25:43.855Z,705.37
2018-05-31T22:28:12.221Z,704.20
2018-05-31T22:30:39.913Z,724.23
2018-05-31T22:33:08.002Z,712.30
2018-05-31T22:35:35.658Z,732.70
2018-05-31T22:38:03.313Z,701.23
2018-05-31T22:40:30.889Z,710.40
2018-05-31T22:42:58.481Z,728.67
2018-05-31T22:45:26.106Z,730.20
2018-05-31T22:47:53.724Z,727.90
2018-05-31T22:50:21.339Z,734.40
2018-05-31T22:52:48.963Z,753.07
2018-05-31T22:55:16.583Z,741.10
2018-05-31T22:57:44.665Z,734.57
2018-05-31T23:00:12.419Z,731.63
2018-05-31T23:02:40.041Z,765.60
2018-05-31T23:05:07.756Z,744.60
2018-05-31T23:07:35.337Z,774.20
2018-05-31T23:10:03.097Z,779.90
2018-05-31T23:12:30.691Z,775.57
2018-05-31T23:14:58.325Z,748.20
2018-05-31T23:17:25.951Z,772.60
2018-05-31T23:19:53.587Z,755.30
2018-05-31T23:22:21.241Z,764.20
2018-05-31T23:24:48.837Z,762.37
2018-05-31T23:27:16.414Z,802.50
2018-05-31T23:29:44.044Z,776.53
2018-05-31T23:32:11.630Z,779.77
2018-05-31T23:34:39.205Z,779.83
2018-05-31T23:37:06.823Z,754.10
2018-05-31T23:39:34.397Z,746.77
2018-05-31T23:42:02.024Z,780.57
2018-05-31T23:44:29.613Z,756.97
2018-05-31T23:46:57.226Z,754.27
2018-05-31T23:49:24.823Z,752.23
2018-05-31T23:51:52.466Z,770.17
2018-05-31T23:54:20.045Z,776.80
2018-05-31T23:56:47.681Z,771.90
2018-05-31T23:59:15.297Z,759.07
